createdAt,value
2023-05-12T00:00:49.486Z,5.39
2023-05-12T00:03:17.447Z,5.34
2023-05-12T00:05:45.333Z,5.26
2023-05-12T00:08:13.085Z,5.12
2023-05-12T00:10:42.241Z,4.95
2023-05-12T00:13:10.416Z,4.86
2023-05-12T00:15:38.708Z,4.76
2023-05-12T00:18:06.760Z,4.64
2023-05-12T00:20:34.720Z,4.53
2023-05-12T00:23:02.825Z,4.41
2023-05-12T00:25:30.588Z,4.30
2023-05-12T00:27:59.754Z,4.21
2023-05-12T00:30:27.667Z,4.11
2023-05-12T00:32:55.631Z,4.03
2023-05-12T00:35:23.620Z,3.92
2023-05-12T00:37:51.452Z,3.89
2023-05-12T00:40:19.718Z,3.82
2023-05-12T00:42:51.042Z,3.77
2023-05-12T00:45:20.585Z,3.70
2023-05-12T00:47:48.515Z,3.65
2023-05-12T00:50:16.891Z,3.59
2023-05-12T00:52:45.114Z,3.55
2023-05-12T00:55:12.935Z,3.50
2023-05-12T00:57:41.677Z,3.43
2023-05-12T01:00:10.706Z,3.40
2023-05-12T01:02:40.495Z,3.36
2023-05-12T01:05:09.929Z,3.31
2023-05-12T01:07:39.948Z,3.27
2023-05-12T01:10:19.128Z,3.25
2023-05-12T01:12:47.253Z,3.15
2023-05-12T01:15:15.199Z,3.20
2023-05-12T01:17:48.891Z,3.15
2023-05-12T01:20:18.605Z,3.11
2023-05-12T01:22:49.250Z,3.09
2023-05-12T01:25:18.384Z,3.05
2023-05-12T01:27:47.874Z,3.05
2023-05-12T01:30:18.997Z,3.01
2023-05-12T01:32:47.111Z,3.00
2023-05-12T01:35:14.893Z,2.97
2023-05-12T01:37:42.826Z,2.98
2023-05-12T01:40:11.206Z,3.00
2023-05-12T01:42:40.287Z,3.05
2023-05-12T01:45:11.022Z,3.07
2023-05-12T01:47:40.320Z,3.11
2023-05-12T01:50:09.205Z,3.13
2023-05-12T01:52:38.870Z,3.20
2023-05-12T01:55:07.265Z,3.24
2023-05-12T01:57:35.915Z,3.29
2023-05-12T02:00:05.558Z,3.28
2023-05-12T02:02:34.863Z,3.24
2023-05-12T02:05:02.607Z,3.19
2023-05-12T02:07:30.528Z,3.12
2023-05-12T02:09:58.522Z,3.07
2023-05-12T02:12:26.311Z,3.02
2023-05-12T02:14:54.082Z,2.98
2023-05-12T02:17:21.934Z,3.01
2023-05-12T02:19:51.279Z,3.03
2023-05-12T02:22:19.082Z,3.14
2023-05-12T02:24:47.048Z,3.25
2023-05-12T02:27:14.901Z,3.32
2023-05-12T02:29:43.092Z,3.35
2023-05-12T02:32:11.284Z,3.34
2023-05-12T02:34:39.321Z,3.39
2023-05-12T02:37:08.438Z,3.37
2023-05-12T02:39:36.408Z,3.38
2023-05-12T02:42:04.527Z,3.40
2023-05-12T02:44:32.273Z,3.44
2023-05-12T02:47:00.072Z,3.48
2023-05-12T02:49:27.927Z,3.50
2023-05-12T02:51:55.969Z,3.52
2023-05-12T02:54:25.240Z,3.47
2023-05-12T02:56:53.252Z,3.48
2023-05-12T02:59:21.036Z,3.48
2023-05-12T03:01:48.905Z,3.50
2023-05-12T03:04:16.722Z,3.56
2023-05-12T03:06:44.435Z,3.63
2023-05-12T03:09:13.882Z,3.68
2023-05-12T03:11:43.032Z,3.80
2023-05-12T03:14:11.220Z,3.84
2023-05-12T03:16:39.026Z,3.90
2023-05-12T03:19:06.926Z,3.98
2023-05-12T03:21:34.839Z,4.01
2023-05-12T03:24:02.831Z,4.11
2023-05-12T03:26:30.568Z,4.20
2023-05-12T03:28:59.701Z,4.29
2023-05-12T03:31:27.841Z,4.40
2023-05-12T03:33:55.661Z,4.60
2023-05-12T03:36:23.892Z,4.93
2023-05-12T03:38:51.871Z,5.16
2023-05-12T03:41:19.719Z,5.41
2023-05-12T03:43:47.644Z,5.67
2023-05-12T03:46:16.815Z,5.84
2023-05-12T03:48:44.574Z,5.98
2023-05-12T03:51:12.579Z,6.17
2023-05-12T03:53:42.457Z,6.38
2023-05-12T03:56:10.293Z,6.49
2023-05-12T03:58:38.145Z,6.70
2023-05-12T04:01:05.955Z,6.93
2023-05-12T04:03:35.399Z,7.13
2023-05-12T04:06:04.324Z,7.41
2023-05-12T04:08:32.375Z,7.66
2023-05-12T04:11:01.761Z,7.92
2023-05-12T04:13:31.151Z,8.18
2023-05-12T04:15:59.740Z,8.36
2023-05-12T04:18:28.912Z,8.56
2023-05-12T04:20:58.240Z,8.80
2023-05-12T04:23:26.466Z,8.95
2023-05-12T04:25:54.454Z,9.25
2023-05-12T04:28:22.578Z,9.41
2023-05-12T04:30:50.479Z,9.72
2023-05-12T04:33:18.439Z,9.99
2023-05-12T04:35:46.800Z,10.26
2023-05-12T04:38:16.003Z,10.55
2023-05-12T04:40:43.773Z,10.88
2023-05-12T04:44:00.106Z,11.14
2023-05-12T04:46:00.424Z,11.33
2023-05-12T04:48:28.475Z,11.69
2023-05-12T04:50:56.833Z,11.94
2023-05-12T04:53:25.966Z,12.14
2023-05-12T04:55:53.776Z,12.40
2023-05-12T04:58:21.531Z,12.58
2023-05-12T05:00:49.438Z,12.77
2023-05-12T05:03:17.584Z,12.95
2023-05-12T05:05:45.973Z,13.05
2023-05-12T05:08:14.070Z,13.20
2023-05-12T05:10:43.298Z,13.29
2023-05-12T05:13:15.138Z,13.43
2023-05-12T05:15:50.859Z,13.60
2023-05-12T05:18:21.067Z,13.85
2023-05-12T05:20:57.968Z,13.91
2023-05-12T05:23:26.747Z,14.05
2023-05-12T05:25:56.163Z,14.21
2023-05-12T05:28:24.063Z,14.24
2023-05-12T05:30:51.890Z,14.49
2023-05-12T05:33:19.688Z,14.70
2023-05-12T05:35:48.194Z,14.70
2023-05-12T05:38:16.216Z,14.87
2023-05-12T05:40:52.843Z,15.12
2023-05-12T05:43:23.158Z,15.30
2023-05-12T05:45:51.403Z,15.51
2023-05-12T05:48:19.242Z,15.82
2023-05-12T05:50:47.041Z,16.03
2023-05-12T05:53:15.188Z,16.27
2023-05-12T05:55:43.410Z,16.51
2023-05-12T05:58:11.419Z,16.72
2023-05-12T06:00:40.576Z,16.81
2023-05-12T06:03:08.379Z,16.87
2023-05-12T06:05:36.337Z,17.16
2023-05-12T06:08:05.205Z,17.07
2023-05-12T06:10:33.160Z,17.24
2023-05-12T06:13:01.134Z,17.68
2023-05-12T06:15:29.156Z,17.76
2023-05-12T06:17:58.253Z,17.71
2023-05-12T06:20:26.021Z,17.84
2023-05-12T06:22:53.826Z,18.08
2023-05-12T06:25:21.784Z,18.52
2023-05-12T06:27:52.737Z,18.71
2023-05-12T06:30:20.596Z,18.80
2023-05-12T06:32:48.467Z,18.51
2023-05-12T06:35:17.984Z,18.54
2023-05-12T06:37:49.547Z,18.69
2023-05-12T06:40:17.989Z,18.89
2023-05-12T06:42:45.963Z,18.92
2023-05-12T06:45:13.781Z,18.97
2023-05-12T06:47:41.527Z,18.88
2023-05-12T06:50:10.045Z,18.97
2023-05-12T06:52:39.810Z,19.11
2023-05-12T06:55:08.380Z,19.35
2023-05-12T06:57:36.256Z,19.52
2023-05-12T07:00:04.961Z,19.62
2023-05-12T07:02:32.844Z,19.72
2023-05-12T07:05:00.712Z,19.90
2023-05-12T07:07:28.493Z,19.91
2023-05-12T07:09:58.376Z,19.99
2023-05-12T07:12:26.203Z,19.96
2023-05-12T07:14:55.013Z,20.01
2023-05-12T07:17:22.930Z,19.98
2023-05-12T07:19:50.704Z,20.35
2023-05-12T07:22:19.271Z,20.53
2023-05-12T07:24:48.047Z,20.98
2023-05-12T07:27:17.738Z,20.91
2023-05-12T07:29:45.565Z,21.14
2023-05-12T07:32:13.487Z,21.40
2023-05-12T07:34:41.300Z,21.36
2023-05-12T07:37:09.060Z,21.44
2023-05-12T07:39:36.869Z,21.12
2023-05-12T07:42:04.905Z,21.38
2023-05-12T07:44:34.243Z,21.73
2023-05-12T07:47:02.173Z,21.87
2023-05-12T07:49:29.947Z,21.93
2023-05-12T07:51:57.797Z,22.19
2023-05-12T07:54:25.728Z,22.52
2023-05-12T07:56:53.502Z,22.65
2023-05-12T07:59:21.252Z,22.30
2023-05-12T08:01:50.369Z,22.38
2023-05-12T08:04:18.163Z,22.38
2023-05-12T08:06:46.644Z,22.34
2023-05-12T08:09:16.451Z,22.47
2023-05-12T08:11:47.082Z,22.46
2023-05-12T08:14:19.113Z,22.75
2023-05-12T08:16:47.061Z,23.01
2023-05-12T08:19:16.224Z,23.78
2023-05-12T08:21:44.038Z,24.09
2023-05-12T08:24:11.730Z,24.00
2023-05-12T08:26:39.431Z,24.09
2023-05-12T08:29:08.749Z,24.15
2023-05-12T08:31:37.860Z,24.24
2023-05-12T08:36:38.164Z,24.36
2023-05-12T08:39:06.110Z,24.35
2023-05-12T08:41:43.143Z,24.65
2023-05-12T08:44:12.031Z,24.98
2023-05-12T08:46:40.070Z,25.61
2023-05-12T08:49:15.761Z,26.07
2023-05-12T08:51:54.392Z,26.79
2023-05-12T08:54:27.520Z,26.65
2023-05-12T08:59:26.703Z,27.14
2023-05-12T09:01:56.230Z,27.32
2023-05-12T09:04:24.171Z,27.43
2023-05-12T09:06:55.935Z,27.63
2023-05-12T09:09:26.229Z,27.48
2023-05-12T09:11:57.957Z,27.44
2023-05-12T09:14:26.943Z,27.80
2023-05-12T09:17:02.360Z,27.74
2023-05-12T09:19:31.383Z,27.28
2023-05-12T09:22:01.921Z,27.20
2023-05-12T09:24:38.230Z,27.49
2023-05-12T09:27:07.091Z,28.08
2023-05-12T09:29:42.517Z,28.15
2023-05-12T09:32:19.588Z,28.20
2023-05-12T09:34:52.522Z,28.88
2023-05-12T09:37:21.694Z,28.88
2023-05-12T09:39:59.681Z,29.11
2023-05-12T09:42:30.451Z,29.21
2023-05-12T09:45:00.774Z,29.82
2023-05-12T09:47:29.857Z,30.37
2023-05-12T09:49:57.908Z,30.42
2023-05-12T09:52:27.299Z,30.54
2023-05-12T09:54:55.043Z,30.77
2023-05-12T09:57:24.335Z,31.01
2023-05-12T09:59:52.918Z,30.73
2023-05-12T10:02:24.300Z,30.45
2023-05-12T10:04:58.595Z,31.05
2023-05-12T10:07:29.478Z,30.31
2023-05-12T10:10:01.005Z,30.34
2023-05-12T10:12:29.691Z,30.28
2023-05-12T10:14:57.894Z,30.53
2023-05-12T10:17:27.799Z,31.03
2023-05-12T10:19:56.032Z,30.93
2023-05-12T10:22:24.405Z,30.80
2023-05-12T10:24:55.779Z,30.47
2023-05-12T10:27:24.652Z,30.42
2023-05-12T10:29:53.721Z,30.63
2023-05-12T10:32:21.796Z,30.91
2023-05-12T10:34:49.625Z,31.07
2023-05-12T10:37:17.757Z,31.05
2023-05-12T10:39:49.742Z,31.00
2023-05-12T10:42:25.331Z,31.19
2023-05-12T10:44:54.280Z,31.73
2023-05-12T10:47:27.822Z,31.77
2023-05-12T10:49:58.434Z,32.14
2023-05-12T10:52:26.195Z,32.10
2023-05-12T10:55:01.449Z,32.20
2023-05-12T10:57:31.729Z,32.95
2023-05-12T11:00:02.478Z,32.75
2023-05-12T11:02:34.475Z,32.33
2023-05-12T11:05:05.299Z,31.94
2023-05-12T11:07:35.635Z,32.41
2023-05-12T11:10:06.112Z,32.85
2023-05-12T11:12:37.299Z,33.78
2023-05-12T11:15:07.641Z,34.06
2023-05-12T11:17:40.040Z,34.07
2023-05-12T11:20:09.759Z,33.53
2023-05-12T11:22:42.752Z,33.38
2023-05-12T11:25:12.118Z,32.39
2023-05-12T11:27:47.565Z,33.34
2023-05-12T11:30:15.908Z,33.21
2023-05-12T11:32:44.215Z,33.84
2023-05-12T11:35:13.975Z,34.67
2023-05-12T11:37:43.483Z,34.73
2023-05-12T11:40:19.066Z,34.47
2023-05-12T11:42:51.689Z,34.21
2023-05-12T11:45:24.764Z,33.83
2023-05-12T11:47:53.154Z,34.20
2023-05-12T11:50:25.800Z,34.53
2023-05-12T11:52:54.658Z,34.55
2023-05-12T11:55:24.578Z,34.90
2023-05-12T11:58:01.890Z,35.09
2023-05-12T12:00:32.299Z,34.41
2023-05-12T12:03:10.509Z,34.65
2023-05-12T12:05:38.808Z,35.12
2023-05-12T12:08:09.015Z,34.26
2023-05-12T12:10:37.062Z,34.60
2023-05-12T12:13:07.207Z,35.22
2023-05-12T12:15:34.962Z,35.71
2023-05-12T12:18:03.115Z,34.86
2023-05-12T12:20:31.005Z,34.23
2023-05-12T12:22:58.936Z,33.88
2023-05-12T12:25:26.790Z,33.65
2023-05-12T12:27:54.574Z,33.58
2023-05-12T12:30:23.766Z,33.33
2023-05-12T12:32:51.650Z,33.20
2023-05-12T12:35:19.653Z,33.05
2023-05-12T12:37:51.294Z,33.08
2023-05-12T12:40:20.184Z,32.37
2023-05-12T12:42:48.251Z,32.90
2023-05-12T12:45:16.991Z,33.11
2023-05-12T12:47:47.713Z,33.14
2023-05-12T12:50:15.617Z,33.10
2023-05-12T12:52:43.543Z,32.42
2023-05-12T12:55:11.394Z,32.14
2023-05-12T12:57:39.331Z,32.40
2023-05-12T13:00:08.678Z,33.26
2023-05-12T13:02:36.964Z,33.53
2023-05-12T13:05:07.296Z,32.85
2023-05-12T13:07:35.130Z,32.85
2023-05-12T13:10:02.914Z,33.56
2023-05-12T13:12:31.410Z,33.59
2023-05-12T13:15:00.322Z,33.56
2023-05-12T13:17:28.470Z,33.09
2023-05-12T13:19:59.038Z,32.70
2023-05-12T13:22:29.065Z,33.22
2023-05-12T13:24:58.024Z,33.36
2023-05-12T13:27:25.980Z,34.03
2023-05-12T13:29:53.744Z,34.27
2023-05-12T13:32:21.773Z,33.61
2023-05-12T13:34:49.530Z,33.97
2023-05-12T13:37:17.586Z,34.46
2023-05-12T13:39:46.678Z,34.27
2023-05-12T13:42:14.587Z,33.82
2023-05-12T13:44:42.472Z,33.24
2023-05-12T13:47:10.523Z,33.18
2023-05-12T13:49:38.346Z,33.12
2023-05-12T13:52:06.788Z,33.31
2023-05-12T13:54:34.727Z,33.54
2023-05-12T13:57:04.177Z,33.53
2023-05-12T13:59:32.350Z,33.70
2023-05-12T14:02:00.393Z,33.29
2023-05-12T14:04:28.559Z,33.73
2023-05-12T14:06:56.364Z,33.62
2023-05-12T14:09:25.001Z,33.53
2023-05-12T14:11:54.440Z,33.13
2023-05-12T14:14:23.552Z,33.17
2023-05-12T14:16:51.382Z,33.35
2023-05-12T14:19:19.272Z,33.30
2023-05-12T14:21:47.081Z,32.74
2023-05-12T14:24:15.608Z,32.31
2023-05-12T14:26:43.548Z,32.59
2023-05-12T14:29:11.310Z,32.83
2023-05-12T14:31:40.889Z,32.85
2023-05-12T14:34:09.221Z,33.06
2023-05-12T14:36:37.111Z,32.79
2023-05-12T14:39:05.593Z,32.39
2023-05-12T14:41:33.344Z,32.43
2023-05-12T14:44:01.120Z,32.51
2023-05-12T14:46:28.930Z,32.61
2023-05-12T14:48:58.258Z,32.53
2023-05-12T14:51:26.023Z,32.40
2023-05-12T14:53:54.213Z,31.84
2023-05-12T14:56:22.069Z,31.51
2023-05-12T14:58:49.984Z,30.87
2023-05-12T15:01:17.810Z,30.37
2023-05-12T15:03:46.686Z,30.09
2023-05-12T15:06:16.592Z,29.99
2023-05-12T15:08:44.536Z,30.54
2023-05-12T15:11:12.324Z,30.56
2023-05-12T15:13:40.176Z,30.78
2023-05-12T15:16:09.059Z,30.49
2023-05-12T15:18:36.945Z,29.88
2023-05-12T15:21:05.482Z,29.87
2023-05-12T15:23:34.691Z,29.54
2023-05-12T15:26:15.445Z,28.97
2023-05-12T15:28:56.132Z,28.96
2023-05-12T15:31:23.953Z,28.63
2023-05-12T15:33:51.900Z,28.79
2023-05-12T15:36:19.694Z,29.13
2023-05-12T15:38:48.831Z,28.87
2023-05-12T15:41:16.607Z,28.42
2023-05-12T15:43:44.378Z,29.13
2023-05-12T15:46:12.257Z,28.71
2023-05-12T15:48:40.149Z,28.94
2023-05-12T15:51:08.218Z,29.04
2023-05-12T15:53:36.263Z,28.37
2023-05-12T15:56:06.589Z,27.83
2023-05-12T15:58:34.460Z,27.52
2023-05-12T16:01:02.271Z,27.66
2023-05-12T16:03:30.158Z,27.08
2023-05-12T16:05:58.254Z,27.13
2023-05-12T16:08:26.058Z,27.01
2023-05-12T16:10:53.866Z,26.25
2023-05-12T16:13:22.994Z,26.54
2023-05-12T16:15:51.287Z,26.34
2023-05-12T16:18:19.626Z,26.39
2023-05-12T16:20:48.238Z,26.58
2023-05-12T16:23:16.164Z,26.54
2023-05-12T16:25:45.619Z,26.22
2023-05-12T16:28:14.572Z,25.28
2023-05-12T16:30:43.784Z,24.50
2023-05-12T16:33:13.080Z,23.94
2023-05-12T16:35:41.022Z,22.99
2023-05-12T16:38:09.042Z,22.07
2023-05-12T16:40:36.891Z,21.59
2023-05-12T16:43:04.637Z,21.26
2023-05-12T16:45:32.785Z,20.94
2023-05-12T16:48:01.907Z,20.61
2023-05-12T16:50:29.709Z,20.37
2023-05-12T16:52:57.547Z,20.21
2023-05-12T16:55:25.537Z,20.13
2023-05-12T16:57:53.344Z,20.00
2023-05-12T17:00:21.891Z,19.89
2023-05-12T17:02:49.969Z,19.73
2023-05-12T17:05:19.680Z,19.60
2023-05-12T17:07:47.748Z,19.48
2023-05-12T17:10:16.011Z,19.37
2023-05-12T17:12:43.865Z,19.26
2023-05-12T17:15:12.765Z,19.07
2023-05-12T17:17:40.527Z,19.02
2023-05-12T17:20:09.276Z,18.88
2023-05-12T17:22:42.566Z,18.79
2023-05-12T17:25:10.809Z,18.69
2023-05-12T17:27:38.509Z,18.60
2023-05-12T17:30:09.267Z,18.50
2023-05-12T17:32:37.920Z,18.44
2023-05-12T17:35:06.630Z,18.37
2023-05-12T17:37:34.679Z,18.20
2023-05-12T17:40:07.213Z,18.04
2023-05-12T17:42:35.279Z,18.00
2023-05-12T17:45:03.346Z,17.98
2023-05-12T17:47:31.112Z,17.96
2023-05-12T17:49:59.376Z,17.83
2023-05-12T17:52:27.424Z,17.75
2023-05-12T17:54:57.254Z,17.68
2023-05-12T17:57:27.040Z,17.57
2023-05-12T17:59:54.917Z,17.48
2023-05-12T18:02:22.893Z,17.45
2023-05-12T18:04:50.734Z,17.37
2023-05-12T18:07:18.613Z,17.23
2023-05-12T18:09:46.377Z,17.14
2023-05-12T18:12:14.122Z,16.98
2023-05-12T18:14:43.525Z,16.95
2023-05-12T18:17:11.659Z,16.88
2023-05-12T18:19:39.423Z,16.77
2023-05-12T18:22:07.226Z,16.57
2023-05-12T18:24:35.692Z,16.50
2023-05-12T18:27:05.276Z,16.51
2023-05-12T18:29:35.767Z,16.35
2023-05-12T18:32:06.089Z,16.22
2023-05-12T18:34:33.841Z,16.18
2023-05-12T18:37:02.106Z,16.15
2023-05-12T18:39:29.876Z,16.03
2023-05-12T18:41:57.792Z,15.91
2023-05-12T18:44:25.608Z,15.85
2023-05-12T18:46:53.731Z,15.75
2023-05-12T18:49:22.913Z,15.74
2023-05-12T18:51:50.721Z,15.60
2023-05-12T18:54:18.509Z,15.50
2023-05-12T18:56:47.346Z,15.38
2023-05-12T18:59:15.180Z,15.18
2023-05-12T19:01:42.989Z,15.05
2023-05-12T19:04:10.875Z,14.93
2023-05-12T19:06:39.990Z,14.97
2023-05-12T19:09:08.311Z,14.80
2023-05-12T19:11:36.547Z,14.71
2023-05-12T19:14:04.290Z,14.53
2023-05-12T19:16:34.382Z,14.56
2023-05-12T19:19:03.079Z,14.44
2023-05-12T19:21:32.366Z,14.41
2023-05-12T19:24:01.876Z,14.22
2023-05-12T19:26:29.685Z,14.08
2023-05-12T19:29:00.446Z,13.93
2023-05-12T19:31:28.501Z,13.80
2023-05-12T19:33:56.521Z,13.62
2023-05-12T19:36:29.121Z,13.31
2023-05-12T19:38:59.577Z,13.07
2023-05-12T19:41:29.653Z,12.93
2023-05-12T19:43:57.631Z,12.91
2023-05-12T19:46:25.668Z,12.93
2023-05-12T19:48:53.708Z,12.86
2023-05-12T19:51:21.616Z,12.83
2023-05-12T19:53:49.368Z,12.67
2023-05-12T19:56:18.741Z,12.59
2023-05-12T19:58:47.950Z,12.43
2023-05-12T20:01:15.831Z,12.16
2023-05-12T20:03:43.712Z,11.93
2023-05-12T20:06:11.741Z,11.78
2023-05-12T20:08:39.593Z,11.56
2023-05-12T20:11:08.245Z,11.31
2023-05-12T20:13:36.121Z,11.28
2023-05-12T20:16:05.920Z,11.14
2023-05-12T20:18:33.728Z,11.07
2023-05-12T20:21:01.465Z,11.00
2023-05-12T20:23:29.275Z,10.86
2023-05-12T20:25:57.522Z,10.82
2023-05-12T20:28:25.238Z,10.76
2023-05-12T20:30:53.173Z,10.67
2023-05-12T20:33:23.021Z,10.46
2023-05-12T20:35:50.885Z,10.24
2023-05-12T20:38:20.700Z,10.04
2023-05-12T20:40:48.530Z,9.86
2023-05-12T20:43:16.460Z,9.69
2023-05-12T20:45:44.343Z,9.67
2023-05-12T20:48:12.185Z,9.61
2023-05-12T20:50:42.161Z,9.52
2023-05-12T20:53:09.977Z,9.44
2023-05-12T20:55:37.890Z,9.49
2023-05-12T20:58:05.647Z,9.59
2023-05-12T21:00:33.567Z,9.58
2023-05-12T21:03:02.965Z,9.57
2023-05-12T21:05:31.036Z,9.51
2023-05-12T21:08:00.465Z,9.43
2023-05-12T21:10:28.307Z,9.32
2023-05-12T21:12:56.086Z,9.26
2023-05-12T21:15:25.926Z,9.27
2023-05-12T21:17:54.460Z,9.26
2023-05-12T21:20:22.559Z,9.21
2023-05-12T21:22:50.506Z,9.12
2023-05-12T21:25:19.776Z,8.96
2023-05-12T21:27:47.626Z,8.82
2023-05-12T21:30:15.616Z,8.69
2023-05-12T21:32:43.410Z,8.62
2023-05-12T21:35:11.448Z,8.56
2023-05-12T21:37:39.630Z,8.56
2023-05-12T21:40:11.405Z,8.53
2023-05-12T21:42:40.544Z,8.48
2023-05-12T21:45:09.443Z,8.46
2023-05-12T21:47:37.373Z,8.37
2023-05-12T21:50:05.773Z,8.26
2023-05-12T21:52:34.076Z,8.13
2023-05-12T21:55:04.629Z,8.05
2023-05-12T21:57:32.459Z,8.00
2023-05-12T22:00:04.154Z,7.98
2023-05-12T22:02:32.297Z,7.94
2023-05-12T22:05:00.027Z,8.10
2023-05-12T22:07:28.615Z,8.24
2023-05-12T22:09:56.490Z,8.27
2023-05-12T22:12:24.330Z,8.30
2023-05-12T22:14:52.297Z,8.62
2023-05-12T22:17:21.850Z,8.87
2023-05-12T22:19:49.598Z,9.21
2023-05-12T22:22:17.867Z,9.23
2023-05-12T22:25:01.657Z,9.29
2023-05-12T22:27:29.433Z,9.34
2023-05-12T22:29:57.419Z,9.15
2023-05-12T22:32:29.125Z,8.96
2023-05-12T22:34:56.921Z,8.86
2023-05-12T22:37:25.302Z,8.84
2023-05-12T22:39:53.009Z,8.73
2023-05-12T22:42:20.929Z,8.58
2023-05-12T22:44:48.668Z,8.50
2023-05-12T22:47:16.646Z,8.37
2023-05-12T22:49:45.922Z,8.23
2023-05-12T22:52:13.721Z,8.07
2023-05-12T22:54:41.490Z,7.89
2023-05-12T22:57:09.250Z,7.69
2023-05-12T22:59:36.992Z,7.58
2023-05-12T23:02:04.805Z,7.60
2023-05-12T23:04:32.665Z,7.52
2023-05-12T23:07:01.860Z,7.42
2023-05-12T23:09:29.689Z,7.33
2023-05-12T23:11:57.517Z,7.27
2023-05-12T23:14:25.345Z,7.27
2023-05-12T23:16:53.325Z,7.21
2023-05-12T23:19:21.226Z,7.15
2023-05-12T23:21:49.112Z,7.13
2023-05-12T23:24:18.401Z,6.99
2023-05-12T23:26:46.208Z,7.02
2023-05-12T23:29:13.993Z,6.98
2023-05-12T23:31:41.930Z,6.89
2023-05-12T23:34:10.016Z,6.87
2023-05-12T23:36:38.844Z,6.84
2023-05-12T23:39:06.593Z,6.75
2023-05-12T23:41:36.700Z,6.73
2023-05-12T23:44:04.713Z,6.69
2023-05-12T23:46:32.544Z,6.66
2023-05-12T23:49:00.617Z,6.65
2023-05-12T23:51:29.544Z,6.63
2023-05-12T23:53:57.960Z,6.58
2023-05-12T23:56:25.674Z,6.49
2023-05-12T23:58:55.366Z,6.39
